Tikaboo Peak, Nevada Weather observations

Data are for 10 minute period ending at time listed.
 Day   Time   Solar   Ave.   Ave.  Ave.  Vector  Max.   Baro.   Total    
  of    of     Rad.   Air    Rel.  Wind   Wind   Wind  Press.  Precip.   
Year   Day            Temp.  Hum.  Speed  Dir.   Gust                    
2026   (PST)  Kw/m2    F      %     mph   deg.    mph    mb.     in.     
-------------------------------------------------------------------------
 127    2:50   0.00   51.2    28    3.5    93     4.7   765.7    0.00 
 127    3:00   0.00   50.6    29    2.7    91     3.8   765.6    0.00 
 127    3:10   0.00   50.3    29    3.6   118     5.0   765.7    0.00 
 127    3:20   0.00   50.8    29    3.3   119     5.5   765.7    0.00 
 127    3:30   0.00   51.0    28    4.3   132     5.0   765.7    0.00 
 127    3:40   0.00   51.1    28    5.2   138     6.6   765.7    0.00 
 127    3:50   0.00   51.3    28    6.3   144     7.5   765.7    0.00 
 127    4:00   0.00   51.4    28    5.8   150     7.1   765.6    0.00 
 127    4:10   0.00   51.2    28    6.8   158     9.3   765.7    0.00 
 127    4:20   0.00   51.4    27    7.3   153     9.6   765.7    0.00 
 127    4:30   0.00   51.2    28    7.4   152     9.6   765.7    0.00 
 127    4:40   0.00   51.2    28    6.9   142     8.1   765.7    0.00 
 127    4:50   0.01   51.4    28    6.2   152     6.6   765.7    0.00 
 127    5:00   0.03   51.6    28    6.1   154     6.3   765.6    0.00 
 127    5:10   0.05   52.0    28    5.4   143     6.1   765.7    0.00 
 127    5:20   0.07   52.6    26    5.1   130     5.6   765.7    0.00 
 127    5:30   0.10   53.2    26    4.8   126     6.4   765.7    0.00 
 127    5:40   0.13   54.2    26    5.0   105     7.2   765.7    0.00 
 127    5:50   0.17   56.1    24    3.2   106     5.4   765.7    0.00 
 127    6:00   0.20   55.7    24    3.0   133     6.5   765.7    0.00 
 127    6:10   0.24   55.5    24    4.0   132     7.3   765.8    0.00 
 127    6:20   0.28   56.2    22    3.2   142     6.7   765.9    0.00 
 127    6:30   0.32   57.7    22    2.1   168     5.3   765.9    0.00 
 127    6:40   0.36   58.6    21    1.6   113     3.9   766.0    0.00 
 127    6:50   0.40   58.7    21    2.9   102     4.9   766.0    0.00 
 127    7:00   0.44   58.4    22    2.7   103     4.5   766.0    0.00 
 127    7:10   0.48   59.0    21    1.9   118     3.8   766.0    0.00 
 127    7:20   0.52   58.1    22    2.6   111     4.8   766.0    0.00 
 127    7:30   0.56   58.5    22    2.9   126     4.7   766.1    0.00 
 127    7:40   0.59   58.5    22    2.0   196     6.1   766.0    0.00 
 127    7:50   0.63   60.2    23    1.7   304     4.1   766.0    0.00 
 127    8:00   0.67   59.8    23    1.4   305     4.8   766.0    0.00 
 127    8:10   0.70   60.4    22    1.8   205     8.8   765.9    0.00 
 127    8:20   0.74   61.0    22    1.9   235     7.2   765.9    0.00 
 127    8:30   0.77   61.4    22    1.2     6     4.1   765.8    0.00 
 127    8:40   0.80   61.6    23    1.6   354     6.7   765.8    0.00 
 127    8:50   0.83   62.7    22    1.7     8     4.7   765.7    0.00 
 127    9:00   0.86   63.7    22    2.2    28     3.8   765.7    0.00 
 127    9:10   0.89   63.6    22    1.4    35     3.1   765.6    0.00 
 127    9:20   0.92   63.1    22    3.2    38     5.3   765.6    0.00 
 127    9:30   0.94   63.6    22    3.4    55     4.7   765.6    0.00 
 127    9:40   0.97   63.2    22    3.2    61     6.7   765.6    0.00 
 127    9:50   0.99   63.0    22    2.4    77     5.9   765.5    0.00 
 127   10:00   1.01   62.7    22    2.8    56     5.5   765.6    0.00 
 127   10:10   1.03   64.1    20    1.5    90     4.2   765.6    0.00 
 127   10:20   1.04   64.8    20    3.1    75    10.1   765.4    0.00 
 127   10:30   1.06   66.0    18    2.7    62     7.5   765.4    0.00 
 127   10:40   1.07   67.0    18    2.4    67     7.8   765.4    0.00 
 127   10:50   1.09   67.0    18    1.8    70     6.3   765.4    0.00 
 127   11:00   1.09   66.8    18    2.7    65     6.9   765.4    0.00 
 127   11:10   1.10   66.9    17    3.0    58     9.1   765.3    0.00 
 127   11:20   1.11   67.3    17    2.1   130     6.3   765.3    0.00 
 127   11:30   1.11   68.1    16    2.1    57     6.7   765.2    0.00 
 127   11:40   1.11   67.5    15    3.8    65     9.8   765.2    0.00 
 127   11:50   1.11   68.7    15    3.4    49     9.3   765.1    0.00 
 127   12:00   1.11   69.7    15    3.2    54    12.0   765.1    0.00 
 127   12:10   1.10   69.6    15    2.1    78     8.3   765.0    0.00 
 127   12:20   1.10   68.6    15    3.2    52     9.5   765.0    0.00 
 127   12:30   1.09   68.3    15    2.3    86     6.4   764.9    0.00 
 127   12:40   1.08   67.5    16    2.0   151     5.8   764.9    0.00 
 127   12:50   1.06   67.0    16    2.6    65    12.1   764.8    0.00 
 127   13:00   1.05   69.7    15    3.2    38     9.1   764.8    0.00 
 127   13:10   1.03   70.0    15    3.7    48    16.0   764.7    0.00 
 127   13:20   1.02   70.8    14    4.7    49    13.0   764.6    0.00 
 127   13:30   1.00   71.0    14    2.9    67     8.0   764.5    0.00 
 127   13:40   0.97   70.5    14    5.4    28    11.0   764.5    0.00 
 127   13:50   0.95   71.0    14    2.8    74     8.7   764.4    0.00 
 127   14:00   0.93   71.8    14    3.1    50    13.2   764.3    0.00 
 127   14:10   0.90   72.1    13    5.2    35    12.3   764.2    0.00 
 127   14:20   0.87   71.1    14    3.1   112     7.8   764.1    0.00 
 127   14:30   0.84   70.4    14    2.9   103     8.1   764.0    0.00 
 127   14:40   0.67   70.5    13    1.5    58     4.5   763.9    0.00 
 127   14:50   0.78   71.0    13    6.3   360    19.3   763.8    0.00 
 127   15:00   0.75   70.1    13    6.4   315    13.2   763.8    0.00 
 127   15:10   0.71   71.1    13    4.8   329    12.1   763.7    0.00 
 127   15:20   0.68   71.3    13    3.3    34     8.9   763.6    0.00 
 127   15:30   0.64   71.2    13    1.9    50     6.8   763.6    0.00 
 127   15:40   0.61   71.0    13    3.1    47     9.4   763.5    0.00 
 127   15:50   0.57   72.0    12    3.6    45     9.1   763.5    0.00 
 127   16:00   0.53   71.7    12    7.8    20    20.5   763.4    0.00 
 127   16:10   0.49   70.6    12    6.7    38    20.0   763.2    0.00 
 127   16:20   0.45   69.5    12    2.3    99    10.3   763.2    0.00 
 127   16:30   0.38   69.7    11    1.9   114     8.4   763.1    0.00 
 127   16:40   0.38   69.2    12    3.1    68    11.5   763.0    0.00 
 127   16:50   0.31   68.4    12    3.3   102    13.2   762.9    0.00 
 127   17:00   0.21   67.3    12    2.7    68    10.4   763.1    0.00 
 127   17:10   0.17   66.5    13    2.2    49    12.6   763.0    0.00 
 127   17:20   0.12   65.0    14    1.4   100     7.3   763.1    0.00 
 127   17:30   0.16   64.2    15    1.8    79    11.3   763.1    0.00 
 127   17:40   0.16   64.4    15    2.0    92     9.3   763.1    0.00 
 127   17:50   0.12   64.2    14    1.8    37     9.7   763.1    0.00 
 127   18:00   0.10   64.2    13    1.8   134     8.5   763.2    0.00 
 127   18:10   0.07   63.4    13    2.3   111    10.7   763.1    0.00 
 127   18:20   0.05   62.9    13    1.1   176     5.8   763.1    0.00 
 127   18:30   0.03   62.5    13    1.2   148     5.8   763.2    0.00 
 127   18:40   0.01   62.2    13    1.4   147     7.5   763.3    0.00 
 127   18:50   0.00   61.8    13    1.8   148    10.2   763.3    0.00 
 127   19:00   0.00   61.7    12    1.7   140     6.9   763.4    0.00 
 127   19:10   0.00   61.3    12    1.8   123     8.4   763.4    0.00 
 127   19:20   0.00   61.0    13    1.2   170     6.5   763.5    0.00 
 127   19:30   0.00   60.8    13    0.8   300     5.6   763.6    0.00 
 127   19:40   0.00   60.4    14    1.8    35     7.3   763.6    0.00 
 127   19:50   0.00   60.7    14   11.7    24    17.5   763.6    0.00 
 127   20:00   0.00   60.9    14   13.3    29    17.2   763.7    0.00 
 127   20:10   0.00   61.0    14   12.4    33    17.4   763.8    0.00 
 127   20:20   0.00   60.9    14   12.3    36    17.3   763.8    0.00 
 127   20:30   0.00   60.8    14   12.4    24    16.4   763.9    0.00 
 127   20:40   0.00   60.6    14   12.8    35    17.2   763.8    0.00 
 127   20:50   0.00   60.4    14   13.6    39    20.8   763.9    0.00 
 127   21:00   0.00   59.9    15    9.8    47    17.2   763.8    0.00 
 127   21:10   0.00   59.2    15    9.5    48    14.8   763.8    0.00 
 127   21:20   0.00   59.2    16   12.2    42    19.5   763.9    0.00 
 127   21:30   0.00   59.0    16   12.2    41    20.2   763.9    0.00 
 127   21:40   0.00   58.9    16   14.1    41    21.0   763.9    0.00 
 127   21:50   0.00   59.2    16   12.6    45    18.1   763.8    0.00 
 127   22:00   0.00   59.0    16   11.4    46    17.8   763.8    0.00 
 127   22:10   0.00   58.8    17   13.7    44    20.5   763.8    0.00 
 127   22:20   0.00   58.9    17   13.2    51    19.8   763.8    0.00 
 127   22:30   0.00   58.6    18    6.9    54    16.5   763.9    0.00 
 127   22:40   0.00   58.0    18    9.9    51    17.1   763.9    0.00 
 127   22:50   0.00   57.8    19    9.3    55    18.3   763.9    0.00 
 127   23:00   0.00   57.6    19    9.4    54    15.0   764.0    0.00 
 127   23:10   0.00   57.2    20    5.0    56     9.8   764.1    0.00 
 127   23:20   0.00   57.4    19   17.3   109    29.7   764.0    0.00 
 127   23:30   0.00   58.8    19   21.2   120    30.6   763.9    0.00 
 127   23:40   0.00   58.8    19   22.0   124    31.4   764.0    0.00 
 127   23:50   0.00   58.8    19   26.1   130    31.8   764.0    0.00 
 128    0:00   0.00   58.5    20   20.5   117    28.7   764.0    0.00 
 128    0:10   0.00   58.4    20   23.1   118    28.3   764.0    0.00 
 128    0:20   0.00   58.4    21   25.8   119    30.0   763.9    0.00 
 128    0:30   0.00   58.6    21   26.0   130    30.6   763.9    0.00 
 128    0:40   0.00   58.4    21   24.2   127    28.6   763.9    0.00 
 128    0:50   0.00   58.5    21   22.4   127    27.0   763.9    0.00 
 128    1:00   0.00   58.4    21   22.0   126    25.6   763.9    0.00 
 128    1:10   0.00   58.4    20   20.9   126    25.1   763.8    0.00 
 128    1:20   0.00   58.3    20   19.9   120    24.3   763.8    0.00 
 128    1:30   0.00   58.4    19   20.2   113    24.3   763.9    0.00 
 128    1:40   0.00   58.3    19   18.7   113    22.1   764.0    0.00 
 128    1:50   0.00   58.1    20   16.2   118    18.8   764.1    0.00 
 128    2:00   0.00   58.0    20   13.7   111    16.4   764.1    0.00 
 128    2:10   0.00   57.4    20   10.4    95    14.7   764.1    0.00 
 128    2:20   0.00   55.9    22    7.8    76    11.5   764.1    0.00 
 128    2:30   0.00   54.9    23    7.9    70     9.3   764.2    0.00 
 128    2:40   0.00   54.4    24    8.9    72    10.4   764.2    0.00 

Return to Tikaboo Peak graphs page.


Western Regional Climate Center,wrcc@dri.edu